createdAt,value
2018-12-08T00:01:41.396Z,2.71
2018-12-08T00:04:10.431Z,2.61
2018-12-08T00:06:39.776Z,2.05
2018-12-08T00:09:08.800Z,1.92
2018-12-08T00:11:37.866Z,1.54
2018-12-08T00:14:06.896Z,1.42
2018-12-08T00:16:35.866Z,1.46
2018-12-08T00:19:04.905Z,1.43
2018-12-08T00:21:34.014Z,1.47
2018-12-08T00:24:03.031Z,1.60
2018-12-08T00:26:31.991Z,1.78
2018-12-08T00:29:01.271Z,1.75
2018-12-08T00:31:50.849Z,1.58
2018-12-08T00:34:19.864Z,1.40
2018-12-08T00:36:48.909Z,1.32
2018-12-08T00:39:17.872Z,1.51
2018-12-08T00:41:46.898Z,1.56
2018-12-08T00:44:15.883Z,1.66
2018-12-08T00:46:44.855Z,1.50
2018-12-08T00:49:14.099Z,1.50
2018-12-08T00:51:43.068Z,1.62
2018-12-08T00:54:12.129Z,1.68
2018-12-08T00:56:41.250Z,1.54
2018-12-08T00:59:10.218Z,1.69
2018-12-08T01:01:39.245Z,1.84
2018-12-08T01:04:08.651Z,2.06
2018-12-08T01:06:37.729Z,1.81
2018-12-08T01:09:07.358Z,1.35
2018-12-08T01:11:36.358Z,1.16
2018-12-08T01:14:05.479Z,1.01
2018-12-08T01:16:34.466Z,0.89
2018-12-08T01:19:03.528Z,1.01
2018-12-08T01:21:32.492Z,1.15
2018-12-08T01:24:01.485Z,1.25
2018-12-08T01:26:30.833Z,1.29
2018-12-08T01:28:59.792Z,1.41
2018-12-08T01:31:28.862Z,1.51
2018-12-08T01:33:57.937Z,1.33
2018-12-08T01:36:27.043Z,1.40
2018-12-08T01:38:55.987Z,2.34
2018-12-08T01:41:25.022Z,3.08
2018-12-08T01:43:53.979Z,3.35
2018-12-08T01:46:22.956Z,3.03
2018-12-08T01:48:52.054Z,2.23
2018-12-08T01:51:21.069Z,2.81
2018-12-08T01:53:50.084Z,2.40
2018-12-08T01:56:19.169Z,2.76
2018-12-08T01:58:48.094Z,2.77
2018-12-08T02:01:17.164Z,3.14
2018-12-08T02:03:46.170Z,3.22
2018-12-08T02:06:15.180Z,3.63
2018-12-08T02:08:44.144Z,3.68
2018-12-08T02:11:13.514Z,3.66
2018-12-08T02:13:42.625Z,3.55
2018-12-08T02:16:11.619Z,3.05
2018-12-08T02:18:40.974Z,3.14
2018-12-08T02:21:09.932Z,2.77
2018-12-08T02:23:38.878Z,2.70
2018-12-08T02:26:07.931Z,3.28
2018-12-08T02:28:36.966Z,3.72
2018-12-08T02:31:05.974Z,4.08
2018-12-08T02:33:35.442Z,4.19
2018-12-08T02:36:04.433Z,2.49
2018-12-08T02:38:33.435Z,1.64
2018-12-08T02:41:02.520Z,1.41
2018-12-08T02:43:31.609Z,1.02
2018-12-08T02:46:00.664Z,0.99
2018-12-08T02:48:29.757Z,0.70
2018-12-08T02:50:58.776Z,0.63
2018-12-08T02:53:27.806Z,0.66
2018-12-08T02:55:57.079Z,0.53
2018-12-08T02:58:26.188Z,0.42
2018-12-08T03:00:55.249Z,0.51
2018-12-08T03:03:24.367Z,0.44
2018-12-08T03:05:53.358Z,0.61
2018-12-08T03:08:22.318Z,0.72
2018-12-08T03:10:51.397Z,0.74
2018-12-08T03:13:20.390Z,0.82
2018-12-08T03:15:49.415Z,0.66
2018-12-08T03:18:18.490Z,0.68
2018-12-08T03:20:47.563Z,0.61
2018-12-08T03:23:16.573Z,0.61
2018-12-08T03:25:45.922Z,0.78
2018-12-08T03:28:14.946Z,0.82
2018-12-08T03:30:45.389Z,0.72
2018-12-08T03:33:13.161Z,0.66
2018-12-08T03:35:42.251Z,0.72
2018-12-08T03:38:11.239Z,0.59
2018-12-08T03:40:40.360Z,0.72
2018-12-08T03:43:09.418Z,0.70
2018-12-08T03:45:38.396Z,0.84
2018-12-08T03:48:07.453Z,0.88
2018-12-08T03:50:36.488Z,0.88
2018-12-08T03:53:05.473Z,0.90
2018-12-08T03:55:34.457Z,0.92
2018-12-08T03:58:03.521Z,0.89
2018-12-08T04:00:32.476Z,1.45
2018-12-08T04:03:01.567Z,2.23
2018-12-08T04:05:30.752Z,1.30
2018-12-08T04:07:59.707Z,1.02
2018-12-08T04:10:28.710Z,0.94
2018-12-08T04:12:57.689Z,0.79
2018-12-08T04:15:26.704Z,0.75
2018-12-08T04:17:55.886Z,0.71
2018-12-08T04:20:24.953Z,0.78
2018-12-08T04:22:53.981Z,0.56
2018-12-08T04:25:23.366Z,0.77
2018-12-08T04:27:52.322Z,0.51
2018-12-08T04:30:21.491Z,0.60
2018-12-08T04:32:50.541Z,0.57
2018-12-08T04:35:19.515Z,0.54
2018-12-08T04:37:48.542Z,0.58
2018-12-08T04:40:17.656Z,0.63
2018-12-08T04:42:46.735Z,0.71
2018-12-08T04:45:15.856Z,0.82
2018-12-08T04:47:45.130Z,0.73
2018-12-08T04:50:14.154Z,0.75
2018-12-08T04:52:43.130Z,0.69
2018-12-08T04:55:12.184Z,0.72
2018-12-08T04:57:41.288Z,1.17
2018-12-08T05:00:10.446Z,2.05
2018-12-08T05:02:39.475Z,2.16
2018-12-08T05:05:08.730Z,2.18
2018-12-08T05:07:37.756Z,2.40
2018-12-08T05:10:07.860Z,1.93
2018-12-08T05:12:36.917Z,1.03
2018-12-08T05:15:06.289Z,0.59
2018-12-08T05:17:35.472Z,0.28
2018-12-08T05:20:04.780Z,0.34
2018-12-08T05:22:33.941Z,0.25
2018-12-08T05:25:03.191Z,0.13
2018-12-08T05:27:32.230Z,0.11
2018-12-08T05:30:01.245Z,0.53
2018-12-08T05:32:30.247Z,0.52
2018-12-08T05:34:59.255Z,0.49
2018-12-08T05:37:28.294Z,0.50
2018-12-08T05:39:57.320Z,0.58
2018-12-08T05:42:26.436Z,0.66
2018-12-08T05:44:55.465Z,0.70
2018-12-08T05:47:24.472Z,0.80
2018-12-08T05:49:53.582Z,0.68
2018-12-08T05:52:23.082Z,0.65
2018-12-08T05:54:52.195Z,0.60
2018-12-08T05:57:21.216Z,0.71
2018-12-08T05:59:50.346Z,1.30
2018-12-08T06:02:19.439Z,1.72
2018-12-08T06:04:48.437Z,2.51
2018-12-08T06:07:17.439Z,2.41
2018-12-08T06:09:46.494Z,1.17
2018-12-08T06:12:15.413Z,0.98
2018-12-08T06:14:44.479Z,0.91
2018-12-08T06:17:13.604Z,0.91
2018-12-08T06:19:43.168Z,0.95
2018-12-08T06:22:12.250Z,1.66
2018-12-08T06:24:41.414Z,2.24
2018-12-08T06:27:37.570Z,3.14
2018-12-08T06:30:08.042Z,2.23
2018-12-08T06:32:37.085Z,3.07
2018-12-08T06:35:06.175Z,3.10
2018-12-08T06:37:35.259Z,3.88
2018-12-08T06:40:04.364Z,3.81
2018-12-08T06:42:33.580Z,3.41
2018-12-08T06:45:02.949Z,3.24
2018-12-08T06:47:31.972Z,3.63
2018-12-08T06:50:00.971Z,3.55
2018-12-08T06:52:30.087Z,3.66
2018-12-08T06:54:59.191Z,3.65
2018-12-08T06:57:28.210Z,3.74
2018-12-08T06:59:57.258Z,3.50
2018-12-08T07:02:26.202Z,3.21
2018-12-08T07:04:55.204Z,2.16
2018-12-08T07:07:24.345Z,2.88
2018-12-08T07:09:53.334Z,2.91
2018-12-08T07:12:22.462Z,2.56
2018-12-08T07:14:51.478Z,3.13
2018-12-08T07:17:20.616Z,3.17
2018-12-08T07:19:49.648Z,3.01
2018-12-08T07:22:18.878Z,2.98
2018-12-08T07:24:47.940Z,3.59
2018-12-08T07:27:16.930Z,4.12
2018-12-08T07:29:46.091Z,4.34
2018-12-08T07:32:15.354Z,4.16
2018-12-08T07:34:44.446Z,3.69
2018-12-08T07:37:13.487Z,4.08
2018-12-08T07:39:42.548Z,4.56
2018-12-08T07:42:11.546Z,4.44
2018-12-08T07:44:40.562Z,4.73
2018-12-08T07:47:09.591Z,4.70
2018-12-08T07:49:38.542Z,3.85
2018-12-08T07:52:07.623Z,3.28
2018-12-08T07:54:36.699Z,3.62
2018-12-08T07:57:05.797Z,4.37
2018-12-08T07:59:34.841Z,4.54
2018-12-08T08:02:03.960Z,4.46
2018-12-08T08:04:32.980Z,4.59
2018-12-08T08:07:02.057Z,3.97
2018-12-08T08:09:31.099Z,3.94
2018-12-08T08:12:00.076Z,4.06
2018-12-08T08:14:29.181Z,3.85
2018-12-08T08:16:59.602Z,4.20
2018-12-08T08:19:27.391Z,4.76
2018-12-08T08:21:56.583Z,4.77
2018-12-08T08:24:25.681Z,4.98
2018-12-08T08:26:54.754Z,4.78
2018-12-08T08:29:24.074Z,5.34
2018-12-08T08:31:53.108Z,5.78
2018-12-08T08:34:22.150Z,6.05
2018-12-08T08:36:51.336Z,5.57
2018-12-08T08:39:20.411Z,5.88
2018-12-08T08:41:49.540Z,5.40
2018-12-08T08:44:18.630Z,6.01
2018-12-08T08:46:47.651Z,5.78
2018-12-08T08:49:16.716Z,6.10
2018-12-08T08:51:45.837Z,5.98
2018-12-08T08:54:14.821Z,6.43
2018-12-08T08:56:43.839Z,5.98
2018-12-08T08:59:12.879Z,6.29
2018-12-08T09:01:41.991Z,6.22
2018-12-08T09:04:10.977Z,5.90
2018-12-08T09:06:40.038Z,6.12
2018-12-08T09:09:09.112Z,5.67
2018-12-08T09:11:38.127Z,6.06
2018-12-08T09:14:13.251Z,6.38
2018-12-08T09:16:36.491Z,6.34
2018-12-08T09:19:05.566Z,5.64
2018-12-08T09:21:34.623Z,5.40
2018-12-08T09:24:03.644Z,5.47
2018-12-08T09:26:32.699Z,5.39
2018-12-08T09:29:01.799Z,5.39
2018-12-08T09:31:30.875Z,5.16
2018-12-08T09:33:59.890Z,5.00
2018-12-08T09:36:29.062Z,4.88
2018-12-08T09:38:58.158Z,5.02
2018-12-08T09:41:27.148Z,5.30
2018-12-08T09:43:56.187Z,5.72
2018-12-08T09:46:25.160Z,5.95
2018-12-08T09:48:54.507Z,6.69
2018-12-08T09:51:23.576Z,6.81
2018-12-08T09:53:52.552Z,6.91
2018-12-08T09:56:21.568Z,6.96
2018-12-08T09:58:50.891Z,7.19
2018-12-08T10:01:19.870Z,7.31
2018-12-08T10:03:49.035Z,7.17
2018-12-08T10:06:18.480Z,7.44
2018-12-08T10:08:47.518Z,7.24
2018-12-08T10:11:16.492Z,7.69
2018-12-08T10:13:45.562Z,7.39
2018-12-08T10:16:14.569Z,7.70
2018-12-08T10:18:43.641Z,7.72
2018-12-08T10:21:12.737Z,8.18
2018-12-08T10:23:41.855Z,8.07
2018-12-08T10:26:10.832Z,8.23
2018-12-08T10:28:39.867Z,8.39
2018-12-08T10:31:09.004Z,8.74
2018-12-08T10:33:38.053Z,8.46
2018-12-08T10:36:07.162Z,8.10
2018-12-08T10:38:36.349Z,8.14
2018-12-08T10:41:05.545Z,8.06
2018-12-08T10:43:34.728Z,8.28
2018-12-08T10:46:03.866Z,7.98
2018-12-08T10:48:32.921Z,7.94
2018-12-08T10:51:02.052Z,8.34
2018-12-08T10:53:31.034Z,8.43
2018-12-08T10:56:00.059Z,8.84
2018-12-08T10:58:29.135Z,8.46
2018-12-08T11:01:03.255Z,9.01
2018-12-08T11:03:46.424Z,8.59
2018-12-08T11:06:16.983Z,8.98
2018-12-08T11:08:44.676Z,8.12
2018-12-08T11:11:13.767Z,8.35
2018-12-08T11:13:42.755Z,8.29
2018-12-08T11:16:11.770Z,8.13
2018-12-08T11:18:40.947Z,8.36
2018-12-08T11:21:09.960Z,8.60
2018-12-08T11:23:38.999Z,8.65
2018-12-08T11:26:08.036Z,9.10
2018-12-08T11:28:37.045Z,8.98
2018-12-08T11:31:06.139Z,9.15
2018-12-08T11:33:35.211Z,8.86
2018-12-08T11:36:04.198Z,8.77
2018-12-08T11:38:33.220Z,8.70
2018-12-08T11:41:02.263Z,8.81
2018-12-08T11:43:31.335Z,8.72
2018-12-08T11:46:00.339Z,8.70
2018-12-08T11:48:29.375Z,8.78
2018-12-08T11:50:58.392Z,8.64
2018-12-08T11:53:27.388Z,9.12
2018-12-08T11:55:56.784Z,8.88
2018-12-08T11:58:25.777Z,9.21
2018-12-08T12:00:54.787Z,8.80
2018-12-08T12:03:24.172Z,8.91
2018-12-08T12:05:53.261Z,9.27
2018-12-08T12:08:22.226Z,8.41
2018-12-08T12:10:51.288Z,8.49
2018-12-08T12:13:20.268Z,7.96
2018-12-08T12:15:49.281Z,7.78
2018-12-08T12:18:18.307Z,8.09
2018-12-08T12:20:47.398Z,8.76
2018-12-08T12:23:16.367Z,9.00
2018-12-08T12:25:46.413Z,8.77
2018-12-08T12:28:15.442Z,8.84
2018-12-08T12:30:44.462Z,8.58
2018-12-08T12:33:13.510Z,8.39
2018-12-08T12:35:42.552Z,8.58
2018-12-08T12:38:11.599Z,9.11
2018-12-08T12:40:40.857Z,8.76
2018-12-08T12:43:09.854Z,8.36
2018-12-08T12:45:38.859Z,8.74
2018-12-08T12:48:07.989Z,9.02
2018-12-08T12:50:36.982Z,8.90
2018-12-08T12:53:05.984Z,8.77
2018-12-08T12:55:35.062Z,9.01
2018-12-08T12:58:04.214Z,8.47
2018-12-08T13:00:33.223Z,8.66
2018-12-08T13:03:02.482Z,8.91
2018-12-08T13:05:31.523Z,8.69
2018-12-08T13:08:00.497Z,7.83
2018-12-08T13:10:29.640Z,8.03
2018-12-08T13:12:58.696Z,7.51
2018-12-08T13:15:27.770Z,7.48
2018-12-08T13:17:56.820Z,7.71
2018-12-08T13:20:25.786Z,7.68
2018-12-08T13:22:54.790Z,7.60
2018-12-08T13:25:25.786Z,7.34
2018-12-08T13:27:54.828Z,7.37
2018-12-08T13:30:23.888Z,7.48
2018-12-08T13:32:53.006Z,7.44
2018-12-08T13:35:59.480Z,7.86
2018-12-08T13:38:28.545Z,8.03
2018-12-08T13:40:57.626Z,8.12
2018-12-08T13:43:26.753Z,8.49
2018-12-08T13:45:55.898Z,8.56
2018-12-08T13:48:26.286Z,8.60
2018-12-08T13:50:55.387Z,8.31
2018-12-08T13:53:24.455Z,8.52
2018-12-08T13:55:53.486Z,8.40
2018-12-08T13:58:22.499Z,8.49
2018-12-08T14:00:51.615Z,8.51
2018-12-08T14:03:20.713Z,8.62
2018-12-08T14:05:49.683Z,8.58
2018-12-08T14:08:18.775Z,8.15
2018-12-08T14:10:47.736Z,8.12
2018-12-08T14:13:16.707Z,8.45
2018-12-08T14:15:45.737Z,8.75
2018-12-08T14:18:14.814Z,8.93
2018-12-08T14:20:43.817Z,8.92
2018-12-08T14:23:12.911Z,9.05
2018-12-08T14:25:42.033Z,9.15
2018-12-08T14:28:11.337Z,9.04
2018-12-08T14:30:40.754Z,8.97
2018-12-08T14:33:09.727Z,8.70
2018-12-08T14:38:19.086Z,8.52
2018-12-08T14:40:48.757Z,8.75
2018-12-08T14:43:17.699Z,8.60
2018-12-08T14:45:46.768Z,8.16
2018-12-08T14:48:15.805Z,8.44
2018-12-08T14:50:44.811Z,8.13
2018-12-08T14:53:14.181Z,8.16
2018-12-08T14:55:43.183Z,8.14
2018-12-08T14:58:12.135Z,7.50
2018-12-08T15:00:41.499Z,7.15
2018-12-08T15:03:10.855Z,6.99
2018-12-08T15:05:39.862Z,6.84
2018-12-08T15:08:09.000Z,6.81
2018-12-08T15:10:37.983Z,6.62
2018-12-08T15:13:07.156Z,6.41
2018-12-08T15:15:36.553Z,6.16
2018-12-08T15:18:06.307Z,6.35
2018-12-08T15:20:35.454Z,6.19
2018-12-08T15:23:04.572Z,6.19
2018-12-08T15:25:33.887Z,5.97
2018-12-08T15:28:02.895Z,5.45
2018-12-08T15:30:31.919Z,5.44
2018-12-08T15:33:00.963Z,5.39
2018-12-08T15:35:29.992Z,5.23
2018-12-08T15:37:59.039Z,5.18
2018-12-08T15:40:28.071Z,5.35
2018-12-08T15:42:57.064Z,5.58
2018-12-08T15:45:26.150Z,5.74
2018-12-08T15:47:55.307Z,5.49
2018-12-08T15:50:24.370Z,5.77
2018-12-08T15:52:53.509Z,5.89
2018-12-08T15:55:22.569Z,5.84
2018-12-08T15:57:51.598Z,5.85
2018-12-08T16:00:20.888Z,5.84
2018-12-08T16:02:49.946Z,6.06
2018-12-08T16:05:18.916Z,5.76
2018-12-08T16:07:47.986Z,5.53
2018-12-08T16:10:17.033Z,5.33
2018-12-08T16:12:46.010Z,5.38
2018-12-08T16:15:15.143Z,5.31
2018-12-08T16:17:44.119Z,5.05
2018-12-08T16:20:14.330Z,5.08
2018-12-08T16:22:43.485Z,5.27
2018-12-08T16:25:12.577Z,5.43
2018-12-08T16:27:41.739Z,5.17
2018-12-08T16:30:10.865Z,5.44
2018-12-08T16:32:39.965Z,5.63
2018-12-08T16:35:10.905Z,5.58
2018-12-08T16:37:38.308Z,5.23
2018-12-08T16:40:07.800Z,5.30
2018-12-08T16:42:36.892Z,5.42
2018-12-08T16:45:07.907Z,5.37
2018-12-08T16:47:36.889Z,5.38
2018-12-08T16:50:07.243Z,5.46
2018-12-08T16:52:36.342Z,5.50
2018-12-08T16:55:06.191Z,5.72
2018-12-08T16:57:35.287Z,5.54
2018-12-08T17:00:04.516Z,5.67
2018-12-08T17:02:33.555Z,5.67
2018-12-08T17:05:02.577Z,5.84
2018-12-08T17:07:31.841Z,5.74
2018-12-08T17:10:00.817Z,5.86
2018-12-08T17:12:29.877Z,6.47
2018-12-08T17:14:58.947Z,6.74
2018-12-08T17:17:27.937Z,6.98
2018-12-08T17:19:56.958Z,6.82
2018-12-08T17:22:25.999Z,6.41
2018-12-08T17:24:55.003Z,6.16
2018-12-08T17:27:24.009Z,6.05
2018-12-08T17:29:53.247Z,5.97
2018-12-08T17:32:22.238Z,5.79
2018-12-08T17:34:51.286Z,5.55
2018-12-08T17:37:20.343Z,5.38
2018-12-08T17:39:49.332Z,5.38
2018-12-08T17:42:18.429Z,5.49
2018-12-08T17:44:47.487Z,5.81
2018-12-08T17:47:16.506Z,6.47
2018-12-08T17:49:45.545Z,7.25
2018-12-08T17:52:14.675Z,6.77
2018-12-08T17:54:43.683Z,6.10
2018-12-08T17:57:12.841Z,5.86
2018-12-08T17:59:41.909Z,5.63
2018-12-08T18:02:12.458Z,5.59
2018-12-08T18:04:40.152Z,5.62
2018-12-08T18:07:09.611Z,5.56
2018-12-08T18:09:38.676Z,5.30
2018-12-08T18:12:07.735Z,5.29
2018-12-08T18:14:37.121Z,5.07
2018-12-08T18:17:06.247Z,5.03
2018-12-08T18:19:35.923Z,5.12
2018-12-08T18:22:05.138Z,5.69
2018-12-08T18:24:34.149Z,5.49
2018-12-08T18:27:03.232Z,5.21
2018-12-08T18:29:32.357Z,5.21
2018-12-08T18:32:01.339Z,5.32
2018-12-08T18:34:30.311Z,5.04
2018-12-08T18:36:59.396Z,5.20
2018-12-08T18:39:28.382Z,5.27
2018-12-08T18:41:57.466Z,5.25
2018-12-08T18:44:26.546Z,5.12
2018-12-08T18:46:55.553Z,5.33
2018-12-08T18:49:24.641Z,5.42
2018-12-08T18:51:53.784Z,5.03
2018-12-08T18:54:22.772Z,5.13
2018-12-08T18:56:51.738Z,5.34
2018-12-08T18:59:21.116Z,5.13
2018-12-08T19:01:50.140Z,5.01
2018-12-08T19:04:19.095Z,4.89
2018-12-08T19:06:48.159Z,4.85
2018-12-08T19:09:17.183Z,5.57
2018-12-08T19:11:46.252Z,5.54
2018-12-08T19:14:15.276Z,5.19
2018-12-08T19:16:44.354Z,5.10
2018-12-08T19:19:13.360Z,5.13
2018-12-08T19:21:42.728Z,4.95
2018-12-08T19:24:11.718Z,4.97
2018-12-08T19:26:40.708Z,4.77
2018-12-08T19:29:09.824Z,4.89
2018-12-08T19:31:38.856Z,4.89
2018-12-08T19:34:07.910Z,4.66
2018-12-08T19:36:36.965Z,4.49
2018-12-08T19:39:07.153Z,4.54
2018-12-08T19:41:36.224Z,4.93
2018-12-08T19:44:05.311Z,4.72
2018-12-08T19:46:34.300Z,4.56
2018-12-08T19:49:03.260Z,4.70
2018-12-08T19:51:32.348Z,4.69
2018-12-08T19:54:01.414Z,4.64
2018-12-08T19:56:30.465Z,4.81
2018-12-08T19:58:59.508Z,4.75
2018-12-08T20:01:28.506Z,4.85
2018-12-08T20:03:57.540Z,5.08
2018-12-08T20:06:26.663Z,5.26
2018-12-08T20:08:55.656Z,5.50
2018-12-08T20:11:24.671Z,5.14
2018-12-08T20:13:53.745Z,5.23
2018-12-08T20:16:22.927Z,5.05
2018-12-08T20:18:51.932Z,5.04
2018-12-08T20:21:21.067Z,5.29
2018-12-08T20:23:50.127Z,5.32
2018-12-08T20:26:19.131Z,4.82
2018-12-08T20:28:48.158Z,4.88
2018-12-08T20:31:17.236Z,5.06
2018-12-08T20:33:46.216Z,4.95
2018-12-08T20:36:15.366Z,4.48
2018-12-08T20:38:44.388Z,4.34
2018-12-08T20:41:13.469Z,4.30
2018-12-08T20:43:42.788Z,4.68
2018-12-08T20:46:11.840Z,4.68
2018-12-08T20:48:40.852Z,4.68
2018-12-08T20:51:10.040Z,4.78
2018-12-08T20:53:39.033Z,4.60
2018-12-08T20:56:08.127Z,4.52
2018-12-08T20:58:37.233Z,4.30
2018-12-08T21:01:06.256Z,4.27
2018-12-08T21:03:36.066Z,4.14
2018-12-08T21:06:05.175Z,4.11
2018-12-08T21:08:34.205Z,4.13
2018-12-08T21:11:03.219Z,4.21
2018-12-08T21:13:32.275Z,4.13
2018-12-08T21:16:02.258Z,4.34
2018-12-08T21:18:30.443Z,4.58
2018-12-08T21:20:59.696Z,4.60
2018-12-08T21:23:28.741Z,4.87
2018-12-08T21:25:57.742Z,4.82
2018-12-08T21:28:27.078Z,4.60
2018-12-08T21:30:56.122Z,4.50
2018-12-08T21:33:25.120Z,4.36
2018-12-08T21:35:54.250Z,4.18
2018-12-08T21:38:23.346Z,4.59
2018-12-08T21:40:52.296Z,4.38
2018-12-08T21:43:21.323Z,4.29
2018-12-08T21:45:50.326Z,4.26
2018-12-08T21:48:19.272Z,4.29
2018-12-08T21:50:48.310Z,4.27
2018-12-08T21:53:17.325Z,4.35
2018-12-08T21:55:46.374Z,4.62
2018-12-08T21:58:17.445Z,4.92
2018-12-08T22:00:46.401Z,4.91
2018-12-08T22:03:15.443Z,4.94
2018-12-08T22:05:44.470Z,5.32
2018-12-08T22:08:13.471Z,5.25
2018-12-08T22:10:42.501Z,5.17
2018-12-08T22:13:11.566Z,5.16
2018-12-08T22:15:40.582Z,5.29
2018-12-08T22:18:09.633Z,5.33
2018-12-08T22:20:38.696Z,5.08
2018-12-08T22:23:07.675Z,5.13
2018-12-08T22:25:36.664Z,5.17
2018-12-08T22:28:05.726Z,5.17
2018-12-08T22:30:34.771Z,5.16
2018-12-08T22:33:03.870Z,5.27
2018-12-08T22:35:32.972Z,5.23
2018-12-08T22:38:01.991Z,5.33
2018-12-08T22:40:30.947Z,5.45
2018-12-08T22:43:00.217Z,5.48
2018-12-08T22:45:29.197Z,5.37
2018-12-08T22:47:58.260Z,5.23
2018-12-08T22:50:27.335Z,5.43
2018-12-08T22:52:56.348Z,5.80
2018-12-08T22:55:25.358Z,6.05
2018-12-08T22:57:54.430Z,5.62
2018-12-08T23:00:46.131Z,6.19
2018-12-08T23:03:15.254Z,5.67
2018-12-08T23:05:44.280Z,5.65
2018-12-08T23:08:13.291Z,5.31
2018-12-08T23:10:42.597Z,4.90
2018-12-08T23:13:11.580Z,4.69
2018-12-08T23:15:40.564Z,4.61
2018-12-08T23:18:09.893Z,4.48
2018-12-08T23:20:38.821Z,4.57
2018-12-08T23:23:07.776Z,4.70
2018-12-08T23:25:36.808Z,4.56
2018-12-08T23:28:05.800Z,4.43
2018-12-08T23:30:34.799Z,4.38
2018-12-08T23:33:03.875Z,4.47
2018-12-08T23:35:32.872Z,4.44
2018-12-08T23:38:01.920Z,4.45
2018-12-08T23:40:31.009Z,4.46
2018-12-08T23:43:00.065Z,4.31
2018-12-08T23:45:29.036Z,4.21
2018-12-08T23:47:58.369Z,4.18
2018-12-08T23:50:27.450Z,4.27
2018-12-08T23:52:56.435Z,4.25
2018-12-08T23:55:25.509Z,4.18
2018-12-08T23:57:54.540Z,4.17
